Nearby METAR Reports

 

KEDC - Austin Exec, Texas, USA
Distance from station: SSE 10mi, 17km
Updated: Fri, 17-Aug-2018 2:15pm CDT
Clear
Clear
 Wind from S
Wind: S 9 mph , 15 km/h, Gust: 17 mph , 28 km/h
Temperature: 95°F , 35°C
Dew Point: 66°F , 19°C
Humidity: 39%
Barometer: 30.05 inHg , 1017.6 hPa
Clouds: Clear
Visibility: 10 miles , 16 km
2018/08/17 19:15 KEDC 171915Z AUTO 18008G15KT 10SM CLR 35/19 A3005 RMK AO2
KGTU - Georgetown, Texas, USA
Distance from station: NNW 11mi, 17km
Updated: Fri, 17-Aug-2018 1:56pm CDT
Clear
Clear
 Wind from varies
Wind: varies 7 mph , 11 km/h, Gust: 16 mph , 26 km/h
Temperature: 97°F , 36°C
Dew Point: 64°F , 18°C
Humidity: 34%
Barometer: 30.06 inHg , 1017.9 hPa
Clouds: Clear
Visibility: 10 miles , 16 km
2018/08/17 18:56 KGTU 171856Z VRB06G14KT 10SM CLR 36/18 A3006 RMK AO2 SLP173 T03610183
 
KATT - Austin/Mabry, Texas, USA
Distance from station: SSW 18mi, 30km
Updated: Fri, 17-Aug-2018 1:51pm CDT
Clear
Clear
 Wind from SSE
Wind: SSE 7 mph , 11 km/h
Temperature: 100°F , 38°C
Dew Point: 63°F , 17°C
Humidity: 29%
Barometer: 30.05 inHg , 1017.6 hPa
Clouds: Clear
Visibility: 10 miles , 16 km
2018/08/17 18:51 KATT 171851Z AUTO 16006KT 10SM CLR 38/17 A3005 RMK AO2 SLP160 T03780167
KRYW - Lago Vista, Texas, USA
Distance from station: W 22mi, 35km
Updated: Fri, 17-Aug-2018 2:15pm CDT
Clear
Clear
 Wind from SSW
Wind: SSW 6 mph , 9 km/h
Temperature: 97°F , 36°C
Dew Point: 57°F , 14°C
Humidity: 27%
Barometer: 30.07 inHg , 1018.3 hPa
Clouds: Clear
Visibility: 10 miles , 16 km
2018/08/17 19:15 KRYW 171915Z AUTO 21005KT 10SM CLR 36/14 A3007 RMK AO2 T03620144
 
KAUS - Austin, Texas, USA
Distance from station: S 25mi, 41km
Updated: Fri, 17-Aug-2018 1:53pm CDT
Few Clouds
Few Clouds
 Wind from SSW
Wind: SSW 8 mph , 13 km/h, Gust: 17 mph , 28 km/h
Temperature: 99°F , 37°C
Dew Point: 63°F , 17°C
Humidity: 31%
Barometer: 30.04 inHg , 1017.3 hPa
Clouds: Few Clouds
Visibility: 10 miles , 16 km
Cloud details: Few Clouds 25000 ft
2018/08/17 18:53 KAUS 171853Z 21007G15KT 10SM FEW250 37/17 A3004 RMK AO2 SLP157 T03720172
KILE - Killeen Muni, Texas, USA
Distance from station: N 36mi, 58km
Updated: Fri, 17-Aug-2018 1:56pm CDT
Clear
Clear
 Wind from SSW
Wind: SSW 10 mph , 17 km/h
Temperature: 97°F , 36°C
Dew Point: 66°F , 19°C
Humidity: 37%
Barometer: 30.05 inHg , 1017.6 hPa
Clouds: Clear
Visibility: 10 miles , 16 km
2018/08/17 18:56 KILE 171856Z AUTO 20009KT 10SM CLR 36/19 A3005 RMK AO2 SLP172 T03610194
 
KGRK - Gray/Ft Hood, Texas, USA
Distance from station: NNW 38mi, 62km
Updated: Fri, 17-Aug-2018 1:58pm CDT
Few Clouds
Few Clouds
 Wind from SSW
Wind: SSW 10 mph , 17 km/h
Temperature: 95°F , 35°C
Dew Point: 61°F , 16°C
Humidity: 32%
Barometer: 30.04 inHg , 1017.3 hPa
Clouds: Few Clouds
Visibility: 10 miles , 16 km
Cloud details: Few Clouds 33000 ft
2018/08/17 18:58 KGRK 171858Z AUTO 20009KT 10SM FEW330 35/16 A3004 RMK AO2 SLP159 T03520161
KBMQ - Burnet, Texas, USA
Distance from station: WNW 39mi, 64km
Updated: Fri, 17-Aug-2018 1:53pm CDT
Clear
Clear
 Wind from SSE
Wind: SSE 9 mph , 15 km/h, Gust: 18 mph , 30 km/h
Temperature: 95°F , 35°C
Dew Point: 63°F , 17°C
Humidity: 34%
Barometer: 30.09 inHg , 1019 hPa
Clouds: Clear
Visibility: 10 miles , 16 km
2018/08/17 18:53 KBMQ 171853Z AUTO 16008G16KT 10SM CLR 35/17 A3009 RMK AO2 SLP167 T03500167
 
KHLR - Ft Hood/Killeen, Texas, USA
Distance from station: N 41mi, 66km
Updated: Fri, 17-Aug-2018 1:58pm CDT
Clear
Clear
 Wind from SW
Wind: SW 14 mph , 22 km/h
Temperature: 95°F , 35°C
Dew Point: 63°F , 17°C
Humidity: 34%
Barometer: 30.01 inHg , 1016.3 hPa
Clouds: Clear
Visibility: 10 miles , 16 km
2018/08/17 18:58 KHLR 171858Z AUTO 22012KT 10SM CLR 35/17 A3001 RMK AO2 SLP149 T03530170
KTPL - Temple/Miller, Texas, USA
Distance from station: NNE 42mi, 68km
Updated: Fri, 17-Aug-2018 1:51pm CDT
Clear
Clear
 Wind from SSE
Wind: SSE 14 mph , 22 km/h, Gust: 20 mph , 31 km/h
Temperature: 99°F , 37°C
Dew Point: 66°F , 19°C
Humidity: 35%
Barometer: 30.04 inHg , 1017.3 hPa
Clouds: Clear
2018/08/17 18:51 KTPL 171851Z AUTO 16012G17KT CLR 37/19 A3004 RMK AO2 SLP170 T03670189 PWINO RVRNO $
 
KT35 - Cameron, Texas, USA
Distance from station: ENE 45mi, 72km
Updated: Fri, 17-Aug-2018 2:15pm CDT
Clear
Clear
 Wind from SSW
Wind: SSW 13 mph , 20 km/h, Gust: 17 mph , 28 km/h
Temperature: 97°F , 36°C
Dew Point: 64°F , 18°C
Humidity: 34%
Barometer: 30.03 inHg , 1016.9 hPa
Clouds: Clear
Visibility: 10 miles , 16 km
2018/08/17 19:15 KT35 171915Z AUTO 20011G15KT 160V240 10SM CLR 36/18 A3003 RMK AO2 T03590176
KDZB - Horseshoe Bay, Texas, USA
Distance from station: W 45mi, 73km
Updated: Fri, 17-Aug-2018 2:15pm CDT
Clear
Clear
 Wind from S
Wind: S 9 mph , 15 km/h
Temperature: 99°F , 37°C
Dew Point: 59°F , 15°C
Humidity: 27%
Barometer: 30.06 inHg , 1017.9 hPa
Clouds: Clear
Visibility: 10 miles , 16 km
2018/08/17 19:15 KDZB 171915Z AUTO 19008KT 10SM CLR 37/15 A3006 RMK AO2 T03670152
 
KGYB - Giddings-Lee, Texas, USA
Distance from station: SE 45mi, 73km
Updated: Fri, 17-Aug-2018 2:15pm CDT
Clear
Clear
 Wind from S
Wind: S 8 mph , 13 km/h
Temperature: 97°F , 36°C
Dew Point: 63°F , 17°C
Humidity: 32%
Barometer: 30.05 inHg , 1017.6 hPa
Clouds: Clear
Visibility: 10 miles , 16 km
2018/08/17 19:15 KGYB 171915Z AUTO 18007KT 10SM CLR 36/17 A3005 RMK AO2 T03550174
KHYI - San Marcos, Texas, USA
Distance from station: SSW 48mi, 78km
Updated: Fri, 17-Aug-2018 1:56pm CDT
Clear
Clear
 Wind from SSW
Wind: SSW 10 mph , 17 km/h, Gust: 18 mph , 30 km/h
Temperature: 99°F , 37°C
Dew Point: 66°F , 19°C
Humidity: 35%
Barometer: 30.05 inHg , 1017.6 hPa
Clouds: Clear
Visibility: 10 miles , 16 km
2018/08/17 18:56 KHYI 171856Z 20009G16KT 160V230 10SM CLR 37/19 A3005 RMK AO2 SLP165 T03670189 $
 
KLZZ - Lampasas, Texas, USA
Distance from station: NW 52mi, 84km
Updated: Fri, 17-Aug-2018 2:15pm CDT
Nearby thunderstorm, Clear
Nearby thunderstorm, Clear
 Wind from S
Wind: S 8 mph , 13 km/h
Temperature: 97°F , 36°C
Dew Point: 63°F , 17°C
Humidity: 32%
Barometer: 30.04 inHg , 1017.3 hPa
Summary: Nearby Thunderstorm
Clouds: Clear
Visibility: 10 miles , 16 km
2018/08/17 19:15 KLZZ 171915Z AUTO 17007KT 10SM VCTS CLR 36/17 A3004 RMK AO2 LTG DSNT SE AND SW T03580165
KRWV - Caldwell, Texas, USA
Distance from station: E 54mi, 87km
Updated: Fri, 17-Aug-2018 2:15pm CDT
Clear
Clear
 Wind from SSW
Wind: SSW 8 mph , 13 km/h
Temperature: 97°F , 36°C
Dew Point: 66°F , 19°C
Humidity: 37%
Barometer: 30.04 inHg , 1017.3 hPa
Clouds: Clear
Visibility: 10 miles , 16 km
2018/08/17 19:15 KRWV 171915Z AUTO 21007KT 170V240 10SM CLR 36/19 A3004 RMK AO2 T03590189
 
K3T5 - La Grange, Texas, USA
Distance from station: SE 59mi, 95km
Updated: Fri, 17-Aug-2018 2:15pm CDT
Clear
Clear
 Wind from S
Wind: S 6 mph , 9 km/h
Temperature: 99°F , 37°C
Dew Point: 68°F , 20°C
Humidity: 37%
Barometer: 30.02 inHg , 1016.6 hPa
Clouds: Clear
Visibility: 10 miles , 16 km
2018/08/17 19:15 K3T5 171915Z AUTO 18005KT 10SM CLR 37/20 A3002 RMK AO2 T03680199
KGOP - Gatesville, Texas, USA
Distance from station: N 61mi, 99km
Updated: Fri, 17-Aug-2018 2:15pm CDT
Clear
Clear
 Wind from SSW
Wind: SSW 7 mph , 11 km/h, Gust: 13 mph , 20 km/h
Temperature: 97°F , 36°C
Dew Point: 63°F , 17°C
Humidity: 32%
Barometer: 30.05 inHg , 1017.6 hPa
Clouds: Clear
Visibility: 10 miles , 16 km
2018/08/17 19:15 KGOP 171915Z AUTO 20006G11KT 10SM CLR 36/17 A3005 RMK AO2
 
KLHB - Hearne Muni, Texas, USA
Distance from station: ENE 63mi, 101km
Updated: Fri, 17-Aug-2018 2:15pm CDT
Clear
Clear
 Wind from SE
Wind: SE 8 mph , 13 km/h
Temperature: 97°F , 36°C
Dew Point: 64°F , 18°C
Humidity: 34%
Barometer: 30.03 inHg , 1016.9 hPa
Clouds: Clear
Visibility: 10 miles , 16 km
2018/08/17 19:15 KLHB 171915Z AUTO 13007KT 10SM CLR 36/18 A3003 RMK AO2 T03600184
KBAZ - New Braunfels, Texas, USA
Distance from station: SSW 63mi, 102km
Updated: Fri, 17-Aug-2018 1:51pm CDT
Clear
Clear
 Wind from S
Wind: S 6 mph , 9 km/h
Temperature: 97°F , 36°C
Dew Point: 63°F , 17°C
Humidity: 32%
Barometer: 30.04 inHg , 1017.3 hPa
Clouds: Clear
Visibility: 10 miles , 16 km
2018/08/17 18:51 KBAZ 171851Z 18005KT 10SM CLR 36/17 A3004 RMK AO2 SLP160 T03610172